sensor_id;sensor_type;location;lat;lon;timestamp;pressure;altitude;pressure_sealevel;temperature;humidity
64368;BME280;50692;53.314;-6.300;2023-05-20T00:02:03;102671.78;;;16.35;59.19
64368;BME280;50692;53.314;-6.300;2023-05-20T00:04:49;102684.41;;;16.31;59.46
64368;BME280;50692;53.314;-6.300;2023-05-20T00:07:35;102683.56;;;16.30;59.38
64368;BME280;50692;53.314;-6.300;2023-05-20T00:10:21;102690.75;;;16.28;59.36
64368;BME280;50692;53.314;-6.300;2023-05-20T00:13:07;102679.44;;;16.23;59.29
64368;BME280;50692;53.314;-6.300;2023-05-20T00:15:52;102678.22;;;16.30;59.16
64368;BME280;50692;53.314;-6.300;2023-05-20T00:18:38;102688.88;;;16.30;59.33
64368;BME280;50692;53.314;-6.300;2023-05-20T00:21:24;102681.81;;;16.29;59.47
64368;BME280;50692;53.314;-6.300;2023-05-20T00:24:10;102679.00;;;16.33;59.37
64368;BME280;50692;53.314;-6.300;2023-05-20T00:26:56;102677.06;;;16.36;59.30
64368;BME280;50692;53.314;-6.300;2023-05-20T00:29:41;102678.06;;;16.34;59.19
64368;BME280;50692;53.314;-6.300;2023-05-20T00:32:27;102673.66;;;16.33;59.49
64368;BME280;50692;53.314;-6.300;2023-05-20T00:35:13;102681.66;;;16.33;59.71
64368;BME280;50692;53.314;-6.300;2023-05-20T00:37:59;102679.94;;;16.31;59.77
64368;BME280;50692;53.314;-6.300;2023-05-20T00:40:45;102683.56;;;16.30;59.72
64368;BME280;50692;53.314;-6.300;2023-05-20T00:43:30;102672.06;;;16.28;59.70
64368;BME280;50692;53.314;-6.300;2023-05-20T00:46:16;102675.75;;;16.26;59.76
64368;BME280;50692;53.314;-6.300;2023-05-20T00:49:02;102668.09;;;16.18;59.72
64368;BME280;50692;53.314;-6.300;2023-05-20T00:51:48;102675.00;;;16.22;60.01
64368;BME280;50692;53.314;-6.300;2023-05-20T00:54:34;102674.16;;;16.22;59.97
64368;BME280;50692;53.314;-6.300;2023-05-20T00:57:20;102674.22;;;16.20;59.96
64368;BME280;50692;53.314;-6.300;2023-05-20T01:00:07;102671.69;;;16.17;60.51
64368;BME280;50692;53.314;-6.300;2023-05-20T01:02:54;102669.97;;;16.16;60.73
64368;BME280;50692;53.314;-6.300;2023-05-20T01:05:41;102669.97;;;16.16;60.82
64368;BME280;50692;53.314;-6.300;2023-05-20T01:08:27;102661.03;;;16.17;60.94
64368;BME280;50692;53.314;-6.300;2023-05-20T01:11:33;102666.22;;;16.20;61.06
64368;BME280;50692;53.314;-6.300;2023-05-20T01:14:22;102664.28;;;16.24;61.59
64368;BME280;50692;53.314;-6.300;2023-05-20T01:17:10;102659.09;;;16.21;61.06
64368;BME280;50692;53.314;-6.300;2023-05-20T01:19:58;102645.75;;;16.21;61.05
64368;BME280;50692;53.314;-6.300;2023-05-20T01:22:52;102651.00;;;16.22;61.44
64368;BME280;50692;53.314;-6.300;2023-05-20T01:25:38;102654.59;;;16.21;61.54
64368;BME280;50692;53.314;-6.300;2023-05-20T01:28:26;102647.56;;;16.20;61.75
64368;BME280;50692;53.314;-6.300;2023-05-20T01:31:19;102648.50;;;16.19;61.95
64368;BME280;50692;53.314;-6.300;2023-05-20T01:34:08;102648.50;;;16.19;61.97
64368;BME280;50692;53.314;-6.300;2023-05-20T01:36:54;102648.50;;;16.19;62.02
64368;BME280;50692;53.314;-6.300;2023-05-20T01:39:41;102645.81;;;16.19;61.95
64368;BME280;50692;53.314;-6.300;2023-05-20T01:42:27;102637.97;;;16.16;61.99
64368;BME280;50692;53.314;-6.300;2023-05-20T01:45:13;102630.72;;;16.18;61.80
64368;BME280;50692;53.314;-6.300;2023-05-20T01:47:59;102633.47;;;16.17;61.81
64368;BME280;50692;53.314;-6.300;2023-05-20T01:50:46;102631.81;;;16.14;61.76
64368;BME280;50692;53.314;-6.300;2023-05-20T01:53:31;102628.50;;;16.09;61.87
64368;BME280;50692;53.314;-6.300;2023-05-20T01:56:17;102622.72;;;15.99;62.05
64368;BME280;50692;53.314;-6.300;2023-05-20T01:59:03;102638.50;;;16.04;62.54
64368;BME280;50692;53.314;-6.300;2023-05-20T02:01:49;102630.81;;;15.98;62.92
64368;BME280;50692;53.314;-6.300;2023-05-20T02:04:35;102628.25;;;15.95;63.63
64368;BME280;50692;53.314;-6.300;2023-05-20T02:07:20;102630.25;;;15.90;64.40
64368;BME280;50692;53.314;-6.300;2023-05-20T02:10:07;102626.94;;;15.85;65.15
64368;BME280;50692;53.314;-6.300;2023-05-20T02:12:53;102628.88;;;15.81;65.57
64368;BME280;50692;53.314;-6.300;2023-05-20T02:15:42;102626.25;;;15.79;65.74
64368;BME280;50692;53.314;-6.300;2023-05-20T02:18:28;102617.47;;;15.77;66.24
64368;BME280;50692;53.314;-6.300;2023-05-20T02:21:13;102618.44;;;15.76;66.22
64368;BME280;50692;53.314;-6.300;2023-05-20T02:23:59;102616.75;;;15.74;66.76
64368;BME280;50692;53.314;-6.300;2023-05-20T02:26:45;102617.69;;;15.73;67.09
64368;BME280;50692;53.314;-6.300;2023-05-20T02:29:31;102620.38;;;15.73;67.13
64368;BME280;50692;53.314;-6.300;2023-05-20T02:32:17;102614.44;;;15.66;67.33
64368;BME280;50692;53.314;-6.300;2023-05-20T02:35:05;102624.97;;;15.69;67.45
64368;BME280;50692;53.314;-6.300;2023-05-20T02:37:51;102611.00;;;15.63;67.62
64368;BME280;50692;53.314;-6.300;2023-05-20T02:40:37;102605.41;;;15.48;68.28
64368;BME280;50692;53.314;-6.300;2023-05-20T02:43:22;102612.22;;;15.55;68.53
64368;BME280;50692;53.314;-6.300;2023-05-20T02:46:08;102609.41;;;15.58;68.33
64368;BME280;50692;53.314;-6.300;2023-05-20T02:48:54;102606.28;;;15.49;68.60
64368;BME280;50692;53.314;-6.300;2023-05-20T02:51:40;102618.59;;;15.51;68.93
64368;BME280;50692;53.314;-6.300;2023-05-20T02:54:26;102609.81;;;15.49;69.14
64368;BME280;50692;53.314;-6.300;2023-05-20T02:57:11;102610.75;;;15.48;69.55
64368;BME280;50692;53.314;-6.300;2023-05-20T02:59:57;102600.22;;;15.45;69.80
64368;BME280;50692;53.314;-6.300;2023-05-20T03:02:43;102595.75;;;15.46;69.64
64368;BME280;50692;53.314;-6.300;2023-05-20T03:05:29;102599.34;;;15.45;69.94
64368;BME280;50692;53.314;-6.300;2023-05-20T03:08:18;102600.22;;;15.45;69.90
64368;BME280;50692;53.314;-6.300;2023-05-20T03:11:04;102598.41;;;15.46;69.75
64368;BME280;50692;53.314;-6.300;2023-05-20T03:13:50;102595.88;;;15.43;69.92
64368;BME280;50692;53.314;-6.300;2023-05-20T03:16:36;102580.94;;;15.39;70.10
64368;BME280;50692;53.314;-6.300;2023-05-20T03:19:22;102581.69;;;15.42;70.11
64368;BME280;50692;53.314;-6.300;2023-05-20T03:22:08;102571.88;;;15.43;70.08
64368;BME280;50692;53.314;-6.300;2023-05-20T03:24:54;102572.91;;;15.40;69.96
64368;BME280;50692;53.314;-6.300;2023-05-20T03:27:40;102575.75;;;15.35;70.05
64368;BME280;50692;53.314;-6.300;2023-05-20T03:30:27;102577.56;;;15.35;69.98
64368;BME280;50692;53.314;-6.300;2023-05-20T03:33:13;102577.50;;;15.37;69.94
64368;BME280;50692;53.314;-6.300;2023-05-20T03:35:59;102581.03;;;15.37;69.85
64368;BME280;50692;53.314;-6.300;2023-05-20T03:38:45;102578.41;;;15.35;69.61
64368;BME280;50692;53.314;-6.300;2023-05-20T03:41:31;102573.91;;;15.38;69.63
64368;BME280;50692;53.314;-6.300;2023-05-20T03:44:17;102565.94;;;15.36;69.72
64368;BME280;50692;53.314;-6.300;2023-05-20T03:47:04;102566.84;;;15.37;69.47
64368;BME280;50692;53.314;-6.300;2023-05-20T03:49:50;102562.50;;;15.34;69.47
64368;BME280;50692;53.314;-6.300;2023-05-20T03:52:36;102553.69;;;15.32;69.48
64368;BME280;50692;53.314;-6.300;2023-05-20T03:55:22;102553.69;;;15.32;69.67
64368;BME280;50692;53.314;-6.300;2023-05-20T03:58:09;102556.44;;;15.30;69.68
64368;BME280;50692;53.314;-6.300;2023-05-20T04:00:55;102549.41;;;15.29;69.60
64368;BME280;50692;53.314;-6.300;2023-05-20T04:03:42;102550.38;;;15.27;69.52
64368;BME280;50692;53.314;-6.300;2023-05-20T04:06:28;102555.63;;;15.28;69.54
64368;BME280;50692;53.314;-6.300;2023-05-20T04:09:14;102552.97;;;15.28;69.68
64368;BME280;50692;53.314;-6.300;2023-05-20T04:12:00;102555.72;;;15.27;69.85
64368;BME280;50692;53.314;-6.300;2023-05-20T04:14:46;102557.44;;;15.28;70.05
64368;BME280;50692;53.314;-6.300;2023-05-20T04:17:34;102549.56;;;15.25;70.03
64368;BME280;50692;53.314;-6.300;2023-05-20T04:20:22;102554.84;;;15.26;70.04
64368;BME280;50692;53.314;-6.300;2023-05-20T04:23:09;102541.53;;;15.26;70.02
64368;BME280;50692;53.314;-6.300;2023-05-20T04:25:55;102546.03;;;15.24;70.08
64368;BME280;50692;53.314;-6.300;2023-05-20T04:28:46;102544.31;;;15.23;70.17
64368;BME280;50692;53.314;-6.300;2023-05-20T04:31:35;102538.06;;;15.24;70.09
64368;BME280;50692;53.314;-6.300;2023-05-20T04:34:21;102548.72;;;15.24;70.22
64368;BME280;50692;53.314;-6.300;2023-05-20T04:37:11;102547.94;;;15.22;69.98
64368;BME280;50692;53.314;-6.300;2023-05-20T04:39:57;102563.09;;;15.20;70.31
64368;BME280;50692;53.314;-6.300;2023-05-20T04:42:43;102558.63;;;15.21;70.55
64368;BME280;50692;53.314;-6.300;2023-05-20T04:45:29;102561.44;;;15.18;70.71
64368;BME280;50692;53.314;-6.300;2023-05-20T04:48:15;102564.91;;;15.20;70.65
64368;BME280;50692;53.314;-6.300;2023-05-20T04:51:02;102562.25;;;15.20;70.70
64368;BME280;50692;53.314;-6.300;2023-05-20T04:53:48;102556.97;;;15.18;70.95
64368;BME280;50692;53.314;-6.300;2023-05-20T04:56:35;102557.84;;;15.19;70.86
64368;BME280;50692;53.314;-6.300;2023-05-20T04:59:21;102558.75;;;15.18;71.03
64368;BME280;50692;53.314;-6.300;2023-05-20T05:02:07;102564.03;;;15.19;71.09
64368;BME280;50692;53.314;-6.300;2023-05-20T05:04:52;102557.69;;;15.22;71.33
64368;BME280;50692;53.314;-6.300;2023-05-20T05:07:38;102565.63;;;15.23;71.13
64368;BME280;50692;53.314;-6.300;2023-05-20T05:10:24;102565.63;;;15.23;71.18
64368;BME280;50692;53.314;-6.300;2023-05-20T05:13:10;102554.13;;;15.23;71.14
64368;BME280;50692;53.314;-6.300;2023-05-20T05:16:00;102560.34;;;15.22;71.37
64368;BME280;50692;53.314;-6.300;2023-05-20T05:18:46;102558.59;;;15.22;71.60
64368;BME280;50692;53.314;-6.300;2023-05-20T05:21:32;102553.25;;;15.22;71.55
64368;BME280;50692;53.314;-6.300;2023-05-20T05:24:17;102557.78;;;15.20;71.80
64368;BME280;50692;53.314;-6.300;2023-05-20T05:27:03;102560.97;;;15.28;71.78
64368;BME280;50692;53.314;-6.300;2023-05-20T05:29:49;102561.78;;;15.30;71.59
64368;BME280;50692;53.314;-6.300;2023-05-20T05:32:36;102546.19;;;15.21;71.85
64368;BME280;50692;53.314;-6.300;2023-05-20T05:35:22;102560.09;;;15.28;72.19
64368;BME280;50692;53.314;-6.300;2023-05-20T05:38:08;102548.59;;;15.27;72.07
64368;BME280;50692;53.314;-6.300;2023-05-20T05:40:54;102552.97;;;15.28;72.34
64368;BME280;50692;53.314;-6.300;2023-05-20T05:43:40;102552.97;;;15.28;72.48
64368;BME280;50692;53.314;-6.300;2023-05-20T05:46:26;102544.19;;;15.26;72.58
64368;BME280;50692;53.314;-6.300;2023-05-20T05:49:12;102542.31;;;15.28;72.58
64368;BME280;50692;53.314;-6.300;2023-05-20T05:51:58;102547.50;;;15.31;72.55
64368;BME280;50692;53.314;-6.300;2023-05-20T05:54:43;102548.97;;;15.39;72.42
64368;BME280;50692;53.314;-6.300;2023-05-20T05:57:30;102552.59;;;15.38;72.67
64368;BME280;50692;53.314;-6.300;2023-05-20T06:00:16;102562.25;;;15.40;72.65
64368;BME280;50692;53.314;-6.300;2023-05-20T06:03:02;102554.16;;;15.42;72.74
64368;BME280;50692;53.314;-6.300;2023-05-20T06:05:48;102554.97;;;15.44;72.59
64368;BME280;50692;53.314;-6.300;2023-05-20T06:08:34;102546.91;;;15.45;72.48
64368;BME280;50692;53.314;-6.300;2023-05-20T06:11:19;102542.66;;;15.41;72.75
64368;BME280;50692;53.314;-6.300;2023-05-20T06:14:06;102547.91;;;15.43;72.75
64368;BME280;50692;53.314;-6.300;2023-05-20T06:16:52;102553.19;;;15.44;72.93
64368;BME280;50692;53.314;-6.300;2023-05-20T06:19:37;102556.63;;;15.46;72.93
64368;BME280;50692;53.314;-6.300;2023-05-20T06:22:23;102549.66;;;15.44;73.19
64368;BME280;50692;53.314;-6.300;2023-05-20T06:25:09;102546.25;;;15.40;73.39
64368;BME280;50692;53.314;-6.300;2023-05-20T06:27:55;102541.78;;;15.41;73.18
64368;BME280;50692;53.314;-6.300;2023-05-20T06:30:41;102553.19;;;15.44;73.38
64368;BME280;50692;53.314;-6.300;2023-05-20T06:33:28;102557.91;;;15.38;73.70
64368;BME280;50692;53.314;-6.300;2023-05-20T06:36:14;102564.19;;;15.37;73.61
64368;BME280;50692;53.314;-6.300;2023-05-20T06:39:00;102558.69;;;15.40;73.58
64368;BME280;50692;53.314;-6.300;2023-05-20T06:41:46;102553.78;;;15.30;73.52
64368;BME280;50692;53.314;-6.300;2023-05-20T06:44:32;102556.97;;;15.39;73.69
64368;BME280;50692;53.314;-6.300;2023-05-20T06:47:19;102556.75;;;15.43;73.59
64368;BME280;50692;53.314;-6.300;2023-05-20T06:50:05;102549.66;;;15.44;73.48
64368;BME280;50692;53.314;-6.300;2023-05-20T06:52:51;102546.19;;;15.42;73.57
64368;BME280;50692;53.314;-6.300;2023-05-20T06:55:37;102548.84;;;15.42;73.19
64368;BME280;50692;53.314;-6.300;2023-05-20T06:58:23;102556.28;;;15.54;72.92
64368;BME280;50692;53.314;-6.300;2023-05-20T07:01:09;102551.91;;;15.53;72.66
64368;BME280;50692;53.314;-6.300;2023-05-20T07:03:55;102547.28;;;15.56;72.55
64368;BME280;50692;53.314;-6.300;2023-05-20T07:06:41;102550.81;;;15.57;72.63
64368;BME280;50692;53.314;-6.300;2023-05-20T07:09:27;102549.81;;;15.59;72.81
64368;BME280;50692;53.314;-6.300;2023-05-20T07:12:13;102550.91;;;15.55;72.64
64368;BME280;50692;53.314;-6.300;2023-05-20T07:14:59;102550.78;;;15.58;72.76
64368;BME280;50692;53.314;-6.300;2023-05-20T07:17:44;102549.81;;;15.59;72.67
64368;BME280;50692;53.314;-6.300;2023-05-20T07:20:30;102556.00;;;15.60;72.81
64368;BME280;50692;53.314;-6.300;2023-05-20T07:23:16;102557.59;;;15.64;72.59
64368;BME280;50692;53.314;-6.300;2023-05-20T07:26:02;102555.66;;;15.69;72.69
64368;BME280;50692;53.314;-6.300;2023-05-20T07:28:48;102549.25;;;15.73;72.34
64368;BME280;50692;53.314;-6.300;2023-05-20T07:31:33;102551.69;;;15.78;72.46
64368;BME280;50692;53.314;-6.300;2023-05-20T07:34:19;102551.03;;;15.73;72.62
64368;BME280;50692;53.314;-6.300;2023-05-20T07:37:07;102550.22;;;15.71;72.45
64368;BME280;50692;53.314;-6.300;2023-05-20T07:39:54;102550.97;;;15.74;72.42
64368;BME280;50692;53.314;-6.300;2023-05-20T07:42:40;102553.41;;;15.79;72.48
64368;BME280;50692;53.314;-6.300;2023-05-20T07:45:26;102562.22;;;15.81;72.47
64368;BME280;50692;53.314;-6.300;2023-05-20T07:48:12;102559.19;;;15.89;72.25
64368;BME280;50692;53.314;-6.300;2023-05-20T07:50:57;102556.38;;;15.92;71.86
64368;BME280;50692;53.314;-6.300;2023-05-20T07:53:44;102557.84;;;15.99;71.68
64368;BME280;50692;53.314;-6.300;2023-05-20T07:56:30;102573.56;;;16.05;71.64
64368;BME280;50692;53.314;-6.300;2023-05-20T07:59:16;102573.25;;;16.11;71.44
64368;BME280;50692;53.314;-6.300;2023-05-20T08:02:02;102578.31;;;16.17;71.42
64368;BME280;50692;53.314;-6.300;2023-05-20T08:04:48;102581.69;;;16.21;71.40
64368;BME280;50692;53.314;-6.300;2023-05-20T08:07:33;102571.66;;;16.26;71.23
64368;BME280;50692;53.314;-6.300;2023-05-20T08:10:19;102577.66;;;16.31;70.91
64368;BME280;50692;53.314;-6.300;2023-05-20T08:13:05;102573.81;;;16.37;70.80
64368;BME280;50692;53.314;-6.300;2023-05-20T08:15:54;102555.38;;;16.32;70.45
64368;BME280;50692;53.314;-6.300;2023-05-20T08:18:40;102561.91;;;16.44;70.05
64368;BME280;50692;53.314;-6.300;2023-05-20T08:21:26;102566.38;;;16.43;69.97
64368;BME280;50692;53.314;-6.300;2023-05-20T08:24:12;102569.00;;;16.45;69.89
64368;BME280;50692;53.314;-6.300;2023-05-20T08:26:58;102560.91;;;16.46;70.10
64368;BME280;50692;53.314;-6.300;2023-05-20T08:29:44;102557.28;;;16.47;69.86
64368;BME280;50692;53.314;-6.300;2023-05-20T08:32:30;102555.56;;;16.46;70.04
64368;BME280;50692;53.314;-6.300;2023-05-20T08:35:16;102519.00;;;16.29;70.13
64368;BME280;50692;53.314;-6.300;2023-05-20T08:38:01;102545.09;;;16.61;70.16
64368;BME280;50692;53.314;-6.300;2023-05-20T08:40:55;102545.75;;;16.66;69.87
64368;BME280;50692;53.314;-6.300;2023-05-20T08:43:41;102548.31;;;16.67;69.86
64368;BME280;50692;53.314;-6.300;2023-05-20T08:46:32;102549.03;;;16.71;69.92
64368;BME280;50692;53.314;-6.300;2023-05-20T08:49:19;102539.94;;;16.75;69.75
64368;BME280;50692;53.314;-6.300;2023-05-20T08:52:05;102537.94;;;16.80;69.42
64368;BME280;50692;53.314;-6.300;2023-05-20T08:54:53;102543.03;;;16.85;69.25
64368;BME280;50692;53.314;-6.300;2023-05-20T08:57:39;102544.59;;;16.89;68.82
64368;BME280;50692;53.314;-6.300;2023-05-20T09:00:26;102534.72;;;16.91;68.71
64368;BME280;50692;53.314;-6.300;2023-05-20T09:03:13;102536.59;;;16.89;68.77
64368;BME280;50692;53.314;-6.300;2023-05-20T09:06:08;102524.81;;;16.93;68.63
64368;BME280;50692;53.314;-6.300;2023-05-20T09:08:54;102526.47;;;16.95;68.68
64368;BME280;50692;53.314;-6.300;2023-05-20T09:11:40;102522.38;;;17.06;68.21
64368;BME280;50692;53.314;-6.300;2023-05-20T09:14:29;102525.59;;;17.12;67.58
64368;BME280;50692;53.314;-6.300;2023-05-20T09:17:14;102527.31;;;17.13;67.24
64368;BME280;50692;53.314;-6.300;2023-05-20T09:20:07;102525.34;;;17.17;66.88
64368;BME280;50692;53.314;-6.300;2023-05-20T09:22:53;102520.78;;;17.19;66.42
64368;BME280;50692;53.314;-6.300;2023-05-20T09:25:39;102525.91;;;17.23;65.95
64368;BME280;50692;53.314;-6.300;2023-05-20T09:28:25;102524.78;;;17.27;65.96
64368;BME280;50692;53.314;-6.300;2023-05-20T09:31:13;102523.69;;;17.32;65.82
64368;BME280;50692;53.314;-6.300;2023-05-20T09:33:59;102524.28;;;17.37;66.07
64368;BME280;50692;53.314;-6.300;2023-05-20T09:36:48;102532.09;;;17.41;65.73
64368;BME280;50692;53.314;-6.300;2023-05-20T09:40:00;102523.22;;;17.41;64.92
64368;BME280;50692;53.314;-6.300;2023-05-20T09:43:01;102530.28;;;17.42;65.08
64368;BME280;50692;53.314;-6.300;2023-05-20T09:45:47;102525.69;;;17.44;64.78
64368;BME280;50692;53.314;-6.300;2023-05-20T09:48:36;102522.97;;;17.45;64.80
64368;BME280;50692;53.314;-6.300;2023-05-20T09:51:22;102536.22;;;17.47;64.57
64368;BME280;50692;53.314;-6.300;2023-05-20T09:54:11;102538.19;;;17.43;64.41
64368;BME280;50692;53.314;-6.300;2023-05-20T09:56:59;102520.00;;;17.34;64.87
64368;BME280;50692;53.314;-6.300;2023-05-20T09:59:45;102529.56;;;17.38;65.08
64368;BME280;50692;53.314;-6.300;2023-05-20T10:02:32;102522.16;;;17.43;64.83
64368;BME280;50692;53.314;-6.300;2023-05-20T10:05:21;102500.94;;;17.40;64.40
64368;BME280;50692;53.314;-6.300;2023-05-20T10:20:50;102503.28;;;17.80;62.62
64368;BME280;50692;53.314;-6.300;2023-05-20T10:23:36;102513.06;;;17.81;61.88
64368;BME280;50692;53.314;-6.300;2023-05-20T10:26:22;102511.94;;;17.85;61.61
64368;BME280;50692;53.314;-6.300;2023-05-20T10:29:17;102502.63;;;17.92;61.38
64368;BME280;50692;53.314;-6.300;2023-05-20T10:32:04;102505.03;;;17.96;61.42
64368;BME280;50692;53.314;-6.300;2023-05-20T10:34:50;102504.72;;;18.03;61.56
64368;BME280;50692;53.314;-6.300;2023-05-20T10:37:41;102505.06;;;18.12;61.06
64368;BME280;50692;53.314;-6.300;2023-05-20T10:40:27;102501.31;;;18.15;60.82
64368;BME280;50692;53.314;-6.300;2023-05-20T10:43:25;102500.03;;;18.22;60.29
64368;BME280;50692;53.314;-6.300;2023-05-20T10:46:16;102488.88;;;18.30;59.79
64368;BME280;50692;53.314;-6.300;2023-05-20T10:49:03;102503.63;;;18.37;59.80
64368;BME280;50692;53.314;-6.300;2023-05-20T10:51:49;102498.97;;;18.40;59.94
64368;BME280;50692;53.314;-6.300;2023-05-20T10:54:42;102493.78;;;18.37;60.36
64368;BME280;50692;53.314;-6.300;2023-05-20T10:57:29;102493.38;;;18.45;60.09
64368;BME280;50692;53.314;-6.300;2023-05-20T11:00:15;102485.34;;;18.45;59.87
64368;BME280;50692;53.314;-6.300;2023-05-20T11:03:03;102489.47;;;18.51;59.69
64368;BME280;50692;53.314;-6.300;2023-05-20T11:05:50;102486.16;;;18.61;59.65
64368;BME280;50692;53.314;-6.300;2023-05-20T11:08:36;102496.00;;;18.61;59.28
64368;BME280;50692;53.314;-6.300;2023-05-20T11:11:22;102486.84;;;18.65;59.09
64368;BME280;50692;53.314;-6.300;2023-05-20T11:14:09;102482.59;;;18.61;59.11
64368;BME280;50692;53.314;-6.300;2023-05-20T11:16:59;102483.47;;;18.61;59.00
64368;BME280;50692;53.314;-6.300;2023-05-20T11:19:46;102476.91;;;18.67;59.19
64368;BME280;50692;53.314;-6.300;2023-05-20T11:22:32;102483.19;;;18.66;59.41
64368;BME280;50692;53.314;-6.300;2023-05-20T11:25:18;102482.00;;;18.72;59.23
64368;BME280;50692;53.314;-6.300;2023-05-20T11:28:11;102458.19;;;18.51;58.79
64368;BME280;50692;53.314;-6.300;2023-05-20T11:30:58;102472.41;;;18.67;59.31
64368;BME280;50692;53.314;-6.300;2023-05-20T11:33:45;102467.00;;;18.83;59.51
64368;BME280;50692;53.314;-6.300;2023-05-20T11:36:31;102464.47;;;18.96;59.36
64368;BME280;50692;53.314;-6.300;2023-05-20T11:39:17;102462.97;;;19.06;59.23
64368;BME280;50692;53.314;-6.300;2023-05-20T11:42:03;102469.00;;;19.10;59.09
64368;BME280;50692;53.314;-6.300;2023-05-20T11:44:50;102465.06;;;19.15;59.15
64368;BME280;50692;53.314;-6.300;2023-05-20T11:47:36;102470.34;;;19.17;58.90
64368;BME280;50692;53.314;-6.300;2023-05-20T11:50:22;102465.63;;;19.06;58.83
64368;BME280;50692;53.314;-6.300;2023-05-20T11:53:18;102458.25;;;18.96;58.65
64368;BME280;50692;53.314;-6.300;2023-05-20T11:56:04;102458.75;;;19.02;59.25
64368;BME280;50692;53.314;-6.300;2023-05-20T11:58:50;102457.00;;;19.01;58.82
64368;BME280;50692;53.314;-6.300;2023-05-20T12:01:38;102456.31;;;18.98;58.91
64368;BME280;50692;53.314;-6.300;2023-05-20T12:04:30;102446.28;;;19.01;58.81
64368;BME280;50692;53.314;-6.300;2023-05-20T12:07:16;102462.97;;;19.21;58.56
64368;BME280;50692;53.314;-6.300;2023-05-20T12:10:02;102453.59;;;19.28;58.51
64368;BME280;50692;53.314;-6.300;2023-05-20T12:12:48;102459.63;;;19.31;58.96
64368;BME280;50692;53.314;-6.300;2023-05-20T12:15:34;102455.13;;;19.17;59.55
64368;BME280;50692;53.314;-6.300;2023-05-20T12:18:23;102454.91;;;19.06;60.08
64368;BME280;50692;53.314;-6.300;2023-05-20T12:21:09;102455.88;;;19.20;60.14
64368;BME280;50692;53.314;-6.300;2023-05-20T12:23:54;102454.16;;;19.18;60.17
64368;BME280;50692;53.314;-6.300;2023-05-20T12:26:43;102451.75;;;19.28;59.78
64368;BME280;50692;53.314;-6.300;2023-05-20T12:29:29;102446.22;;;19.31;59.62
64368;BME280;50692;53.314;-6.300;2023-05-20T12:32:14;102439.03;;;19.32;59.28
64368;BME280;50692;53.314;-6.300;2023-05-20T12:35:01;102444.69;;;19.27;58.93
64368;BME280;50692;53.314;-6.300;2023-05-20T12:37:46;102448.72;;;19.34;59.14
64368;BME280;50692;53.314;-6.300;2023-05-20T12:40:33;102450.44;;;19.35;59.02
64368;BME280;50692;53.314;-6.300;2023-05-20T12:43:19;102442.38;;;19.35;58.88
64368;BME280;50692;53.314;-6.300;2023-05-20T12:46:05;102420.81;;;19.23;58.90
64368;BME280;50692;53.314;-6.300;2023-05-20T12:48:51;102438.34;;;19.42;58.64
64368;BME280;50692;53.314;-6.300;2023-05-20T12:51:39;102433.66;;;19.46;58.65
64368;BME280;50692;53.314;-6.300;2023-05-20T12:54:25;102429.63;;;19.53;58.61
64368;BME280;50692;53.314;-6.300;2023-05-20T12:57:12;102431.25;;;19.56;58.60
64368;BME280;50692;53.314;-6.300;2023-05-20T12:59:58;102425.22;;;19.52;58.48
64368;BME280;50692;53.314;-6.300;2023-05-20T13:02:45;102429.13;;;19.61;58.38
64368;BME280;50692;53.314;-6.300;2023-05-20T13:05:31;102427.63;;;19.71;58.29
64368;BME280;50692;53.314;-6.300;2023-05-20T13:08:16;102425.44;;;19.63;58.29
64368;BME280;50692;53.314;-6.300;2023-05-20T13:11:02;102419.25;;;19.76;58.22
64368;BME280;50692;53.314;-6.300;2023-05-20T13:13:49;102421.94;;;19.76;57.93
64368;BME280;50692;53.314;-6.300;2023-05-20T13:16:35;102420.59;;;19.83;57.55
64368;BME280;50692;53.314;-6.300;2023-05-20T13:19:21;102417.50;;;19.89;57.20
64368;BME280;50692;53.314;-6.300;2023-05-20T13:22:07;102405.09;;;20.01;57.00
64368;BME280;50692;53.314;-6.300;2023-05-20T13:24:56;102403.53;;;20.11;56.75
64368;BME280;50692;53.314;-6.300;2023-05-20T13:27:43;102396.25;;;20.13;56.31
64368;BME280;50692;53.314;-6.300;2023-05-20T13:30:29;102391.16;;;20.08;55.88
64368;BME280;50692;53.314;-6.300;2023-05-20T13:33:15;102386.56;;;20.10;55.61
64368;BME280;50692;53.314;-6.300;2023-05-20T13:36:01;102382.06;;;20.11;55.23
64368;BME280;50692;53.314;-6.300;2023-05-20T13:38:47;102378.59;;;20.09;55.38
64368;BME280;50692;53.314;-6.300;2023-05-20T13:41:32;102381.00;;;20.13;55.04
64368;BME280;50692;53.314;-6.300;2023-05-20T13:44:18;102373.81;;;20.14;54.77
64368;BME280;50692;53.314;-6.300;2023-05-20T13:47:04;102376.28;;;20.17;54.92
64368;BME280;50692;53.314;-6.300;2023-05-20T13:49:51;102374.78;;;20.13;54.95
64368;BME280;50692;53.314;-6.300;2023-05-20T13:52:37;102369.16;;;20.16;54.83
64368;BME280;50692;53.314;-6.300;2023-05-20T13:55:23;102355.53;;;20.19;54.92
64368;BME280;50692;53.314;-6.300;2023-05-20T13:58:09;102357.50;;;20.17;54.58
64368;BME280;50692;53.314;-6.300;2023-05-20T14:00:55;102346.38;;;20.09;54.26
64368;BME280;50692;53.314;-6.300;2023-05-20T14:03:41;102362.75;;;20.19;54.15
64368;BME280;50692;53.314;-6.300;2023-05-20T14:06:27;102369.81;;;20.20;54.04
64368;BME280;50692;53.314;-6.300;2023-05-20T14:09:13;102368.97;;;20.19;54.13
64368;BME280;50692;53.314;-6.300;2023-05-20T14:11:59;102371.00;;;20.16;54.30
64368;BME280;50692;53.314;-6.300;2023-05-20T14:14:45;102360.78;;;20.08;54.30
64368;BME280;50692;53.314;-6.300;2023-05-20T14:17:31;102355.31;;;20.09;54.55
64368;BME280;50692;53.314;-6.300;2023-05-20T14:20:17;102354.81;;;20.17;54.39
64368;BME280;50692;53.314;-6.300;2023-05-20T14:23:03;102350.50;;;20.15;54.14
64368;BME280;50692;53.314;-6.300;2023-05-20T14:25:48;102333.53;;;20.14;54.17
64368;BME280;50692;53.314;-6.300;2023-05-20T14:28:35;102347.19;;;20.24;54.21
64368;BME280;50692;53.314;-6.300;2023-05-20T14:31:21;102348.78;;;20.26;54.18
64368;BME280;50692;53.314;-6.300;2023-05-20T14:34:06;102336.34;;;20.25;53.83